Time;durP1;ratioP1;P1;durP2;ratioP2;P2;SDS_P1;SDS_P2;PMS_P1;PMS_P2;Temp;Humidity;BMP_temperature;BMP_pressure;BME280_temperature;BME280_humidity;BME280_pressure;Samples;Min_cycle;Max_cycle;Signal;HPM_P1;HPM_P2
2023/08/11 00:00:50;;;;;;;4.63;3.47;;;19.80;99.90;;;;;;5078754;28;20064;-43
2023/08/11 00:03:16;;;;;;;3.40;3.10;;;19.80;99.90;;;;;;5077960;28;20074;-43
2023/08/11 00:05:42;;;;;;;3.22;2.90;;;19.70;99.90;;;;;;5076234;28;20039;-43
2023/08/11 00:08:08;;;;;;;3.30;3.00;;;19.80;99.90;;;;;;5080059;28;20034;-43
2023/08/11 00:10:40;;;;;;;3.20;2.90;;;19.70;99.90;;;;;;5074357;28;20036;-43
2023/08/11 00:13:08;;;;;;;3.85;3.17;;;19.70;99.90;;;;;;5084895;28;20024;-43
2023/08/11 00:15:39;;;;;;;5.40;3.60;;;19.70;99.90;;;;;;5076007;28;20040;-43
2023/08/11 00:18:05;;;;;;;3.78;3.15;;;19.70;99.90;;;;;;5084657;28;20027;-43
2023/08/11 00:20:31;;;;;;;3.10;2.80;;;19.70;99.90;;;;;;5075296;28;20028;-43
2023/08/11 00:23:00;;;;;;;3.83;3.53;;;19.70;99.90;;;;;;5086390;28;20033;-43
2023/08/11 00:25:31;;;;;;;4.57;3.35;;;19.60;99.90;;;;;;5074042;28;20106;-44
2023/08/11 00:27:58;;;;;;;4.03;3.60;;;19.60;99.90;;;;;;5086409;28;20035;-43
2023/08/11 00:30:24;;;;;;;4.47;3.35;;;19.60;99.90;;;;;;5073983;28;20069;-43
2023/08/11 00:32:50;;;;;;;3.90;3.50;;;19.60;99.90;;;;;;5085780;28;20902;-43
2023/08/11 00:35:15;;;;;;;3.53;3.22;;;19.60;99.90;;;;;;5073348;28;20557;-43
2023/08/11 00:37:41;;;;;;;3.75;3.10;;;19.60;99.90;;;;;;5086864;28;20036;-43
2023/08/11 00:40:08;;;;;;;4.22;3.63;;;19.60;99.90;;;;;;5075409;28;20048;-44
2023/08/11 00:42:34;;;;;;;5.35;3.35;;;19.60;99.90;;;;;;5085179;28;20024;-44
2023/08/11 00:44:59;;;;;;;5.47;3.35;;;19.60;99.90;;;;;;5077719;28;20036;-43
2023/08/11 00:47:29;;;;;;;4.40;3.38;;;19.50;99.90;;;;;;5081591;28;20043;-43
2023/08/11 00:49:55;;;;;;;3.97;3.58;;;19.50;99.90;;;;;;5080551;28;20577;-43
2023/08/11 00:52:21;;;;;;;5.68;3.30;;;19.50;99.90;;;;;;5078828;28;20020;-43
2023/08/11 00:54:47;;;;;;;4.15;3.75;;;19.50;99.90;;;;;;5071772;28;20693;-43
2023/08/11 00:57:13;;;;;;;5.13;3.83;;;19.50;99.90;;;;;;5075107;28;20029;-43
2023/08/11 00:59:39;;;;;;;3.90;3.50;;;19.50;99.90;;;;;;5065863;28;20435;-43
2023/08/11 01:02:07;;;;;;;4.68;4.00;;;19.50;99.90;;;;;;5076674;28;20024;-43
2023/08/11 01:04:35;;;;;;;3.80;3.50;;;19.50;99.90;;;;;;5067508;28;20032;-43
2023/08/11 01:07:13;;;;;;;4.13;3.70;;;19.50;99.90;;;;;;5075609;28;20021;-43
2023/08/11 01:10:12;;;;;;;5.40;3.65;;;19.40;99.90;;;;;;5067476;28;20036;-43
2023/08/11 01:12:40;;;;;;;3.60;3.30;;;19.40;99.90;;;;;;5076148;28;20031;-43
2023/08/11 01:15:19;;;;;;;4.35;4.00;;;19.40;99.90;;;;;;5083457;28;20587;-43
2023/08/11 01:17:47;;;;;;;4.03;3.63;;;19.40;99.90;;;;;;5075353;28;20073;-43
2023/08/11 01:20:16;;;;;;;4.03;3.67;;;19.30;99.90;;;;;;5082350;28;20028;-43
2023/08/11 01:22:47;;;;;;;4.47;4.07;;;19.30;99.90;;;;;;5075230;28;20073;-43
2023/08/11 01:25:13;;;;;;;4.78;3.80;;;19.30;99.90;;;;;;5084074;28;20023;-43
2023/08/11 01:27:52;;;;;;;4.00;3.65;;;19.30;99.90;;;;;;5074108;28;20065;-43
2023/08/11 01:30:18;;;;;;;4.22;3.80;;;19.30;99.90;;;;;;5084254;28;20028;-43
2023/08/11 01:32:46;;;;;;;4.85;4.18;;;19.30;99.90;;;;;;5074263;28;20030;-44
2023/08/11 01:35:12;;;;;;;4.50;4.10;;;19.30;99.90;;;;;;5085139;28;20032;-43
2023/08/11 01:37:37;;;;;;;4.63;4.22;;;19.20;99.90;;;;;;5073117;28;20039;-43
2023/08/11 01:40:10;;;;;;;5.60;4.28;;;19.20;99.90;;;;;;5085357;28;20119;-43
2023/08/11 01:42:36;;;;;;;;;;;19.20;99.90;;;;;;5072676;28;20747;-43
2023/08/11 01:45:04;;;;;;;4.55;3.80;;;19.10;99.90;;;;;;5085430;28;19907;-43
2023/08/11 01:47:31;;;;;;;4.65;4.05;;;19.10;99.90;;;;;;5074717;28;20085;-42
2023/08/11 01:49:57;;;;;;;4.70;4.30;;;19.10;99.90;;;;;;5084021;28;20097;-43
2023/08/11 01:52:24;;;;;;;5.00;4.47;;;19.00;99.90;;;;;;5076966;28;20111;-43
2023/08/11 01:54:49;;;;;;;4.90;4.50;;;19.00;99.90;;;;;;5083469;28;20530;-43
2023/08/11 01:57:16;;;;;;;5.78;4.53;;;19.00;99.90;;;;;;5077035;28;20029;-43
2023/08/11 01:59:45;;;;;;;5.45;4.97;;;19.00;99.90;;;;;;5079936;28;20030;-43
2023/08/11 02:02:11;;;;;;;5.20;4.68;;;19.00;99.90;;;;;;5079943;28;20025;-43
2023/08/11 02:04:38;;;;;;;5.85;4.90;;;19.00;99.90;;;;;;5076532;28;20028;-43
2023/08/11 02:07:03;;;;;;;5.32;4.70;;;19.00;99.90;;;;;;5082324;28;20460;-44
2023/08/11 02:09:31;;;;;;;4.82;4.32;;;18.90;99.90;;;;;;5074014;28;20028;-43
2023/08/11 02:11:57;;;;;;;5.43;4.57;;;18.90;99.90;;;;;;5083831;28;20310;-43
2023/08/11 02:14:22;;;;;;;5.22;4.45;;;18.90;99.90;;;;;;5073642;28;20520;-42
2023/08/11 02:16:48;;;;;;;5.68;4.30;;;18.90;99.90;;;;;;5084222;28;20042;-43
2023/08/11 02:19:14;;;;;;;5.22;4.72;;;18.90;99.90;;;;;;5072850;28;20017;-43
2023/08/11 02:21:40;;;;;;;5.05;4.15;;;18.90;99.90;;;;;;5084527;28;20505;-42
2023/08/11 02:24:05;;;;;;;4.90;4.35;;;18.90;99.90;;;;;;5071141;28;20376;-43
2023/08/11 02:26:32;;;;;;;4.75;4.35;;;18.90;99.90;;;;;;5084602;28;20096;-43
2023/08/11 02:28:58;;;;;;;7.10;4.28;;;18.90;99.90;;;;;;5072327;28;20111;-43
2023/08/11 02:31:25;;;;;;;5.03;4.53;;;18.80;99.90;;;;;;5082701;28;20122;-43
2023/08/11 02:33:51;;;;;;;6.05;5.10;;;18.80;99.90;;;;;;5074312;28;20063;-43
2023/08/11 02:36:19;;;;;;;5.55;4.85;;;18.80;99.90;;;;;;5081441;28;20118;-43
2023/08/11 02:38:44;;;;;;;5.03;4.55;;;18.80;99.90;;;;;;5075986;28;20028;-43
2023/08/11 02:41:13;;;;;;;4.63;4.10;;;18.80;99.90;;;;;;5079240;28;20028;-43
2023/08/11 02:43:38;;;;;;;5.20;4.70;;;18.80;99.90;;;;;;5079154;28;20472;-43
2023/08/11 02:46:05;;;;;;;4.70;4.30;;;18.70;99.90;;;;;;5075781;28;20571;-43
2023/08/11 02:48:33;;;;;;;6.53;4.57;;;18.70;99.90;;;;;;5081640;28;20023;-43
2023/08/11 02:51:03;;;;;;;4.60;4.20;;;18.70;99.90;;;;;;5074653;28;20222;-43
2023/08/11 02:53:28;;;;;;;4.90;4.25;;;18.70;99.90;;;;;;5079462;28;20059;-43
2023/08/11 02:56:05;;;;;;;5.28;4.78;;;18.70;99.90;;;;;;5075865;28;20142;-43
2023/08/11 02:58:30;;;;;;;5.35;4.85;;;18.70;99.90;;;;;;5065301;28;20016;-43
2023/08/11 03:00:57;;;;;;;5.25;4.30;;;18.60;99.90;;;;;;5074703;28;20031;-43
2023/08/11 03:03:23;;;;;;;6.65;4.80;;;18.70;99.90;;;;;;5064773;28;20024;-43
2023/08/11 03:05:49;;;;;;;5.05;4.22;;;18.60;99.90;;;;;;5075247;28;20500;-43
2023/08/11 03:08:14;;;;;;;5.28;4.78;;;18.60;99.90;;;;;;5063757;28;20029;-42
2023/08/11 03:10:40;;;;;;;5.47;4.68;;;18.60;99.90;;;;;;5076576;28;20377;-43
2023/08/11 03:13:06;;;;;;;5.10;4.60;;;18.60;99.90;;;;;;5063575;28;20032;-43
2023/08/11 03:15:33;;;;;;;4.85;4.38;;;18.60;99.90;;;;;;5076069;28;20559;-43
2023/08/11 03:17:59;;;;;;;5.45;4.68;;;18.60;99.90;;;;;;5063964;28;20068;-43
2023/08/11 03:20:25;;;;;;;6.72;4.93;;;18.60;99.90;;;;;;5072994;28;20056;-43
2023/08/11 03:22:51;;;;;;;5.63;4.47;;;18.50;99.90;;;;;;5066923;28;20035;-42
2023/08/11 03:25:17;;;;;;;5.65;4.43;;;18.50;99.90;;;;;;5070715;28;20077;-43
2023/08/11 03:27:45;;;;;;;5.20;4.55;;;18.50;99.90;;;;;;5069384;28;20027;-43
2023/08/11 03:30:13;;;;;;;4.95;4.43;;;18.50;99.90;;;;;;5068747;28;20023;-43
2023/08/11 03:32:39;;;;;;;4.82;4.25;;;18.50;99.90;;;;;;5070975;28;20060;-43
2023/08/11 03:35:06;;;;;;;4.50;4.10;;;18.50;99.90;;;;;;5064833;28;20025;-43
2023/08/11 03:37:32;;;;;;;5.22;4.38;;;18.40;99.90;;;;;;5073591;28;20090;-43
2023/08/11 03:39:58;;;;;;;6.85;4.90;;;18.40;99.90;;;;;;5064831;28;20028;-43
2023/08/11 03:42:33;;;;;;;4.72;4.22;;;18.40;99.90;;;;;;5074277;28;20024;-44
2023/08/11 03:44:58;;;;;;;6.00;5.28;;;18.40;99.90;;;;;;5067218;28;20105;-43
2023/08/11 03:47:27;;;;;;;6.30;4.90;;;18.40;99.90;;;;;;5078652;28;20062;-44
2023/08/11 03:49:52;;;;;;;7.38;5.25;;;18.40;99.90;;;;;;5067074;28;20139;-43
2023/08/11 03:52:18;;;;;;;6.15;5.32;;;18.40;99.90;;;;;;5079046;28;20177;-44
2023/08/11 03:54:43;;;;;;;5.32;4.60;;;18.40;99.90;;;;;;5082783;28;20056;-44
2023/08/11 03:57:09;;;;;;;5.50;5.00;;;18.40;99.90;;;;;;5073852;28;20025;-43
2023/08/11 03:59:36;;;;;;;7.20;5.07;;;18.30;99.90;;;;;;5087879;28;20028;-43
2023/08/11 04:02:01;;;;;;;7.60;5.22;;;18.40;99.90;;;;;;5074870;28;20028;-44
2023/08/11 04:04:27;;;;;;;5.82;5.22;;;18.30;99.90;;;;;;5087170;28;20016;-43
2023/08/11 04:06:52;;;;;;;5.88;5.28;;;18.30;99.90;;;;;;5078065;28;20088;-43
2023/08/11 04:09:18;;;;;;;6.40;5.03;;;18.30;99.90;;;;;;5082500;28;20024;-43
2023/08/11 04:11:44;;;;;;;5.50;4.90;;;18.30;99.90;;;;;;5080644;28;20020;-43
2023/08/11 04:14:10;;;;;;;7.15;4.38;;;18.30;99.90;;;;;;5080291;28;20024;-43
2023/08/11 04:16:35;;;;;;;5.70;4.72;;;18.30;99.90;;;;;;5082338;28;20395;-43
2023/08/11 04:19:01;;;;;;;6.18;4.68;;;18.30;99.90;;;;;;5078506;28;20539;-43
2023/08/11 04:21:30;;;;;;;5.97;5.07;;;18.30;99.90;;;;;;5085608;28;20043;-43
2023/08/11 04:23:55;;;;;;;5.80;5.15;;;18.30;99.90;;;;;;5075180;28;20059;-44
2023/08/11 04:26:21;;;;;;;7.38;5.78;;;18.30;99.90;;;;;;5084872;28;20052;-43
2023/08/11 04:28:46;;;;;;;6.13;5.50;;;18.30;99.90;;;;;;5078231;28;20063;-43
2023/08/11 04:31:13;;;;;;;6.25;5.47;;;18.30;99.90;;;;;;5065872;28;20036;-43
2023/08/11 04:33:39;;;;;;;6.00;5.40;;;18.30;99.90;;;;;;5074384;28;20468;-43
2023/08/11 04:36:04;;;;;;;6.15;5.60;;;18.30;99.90;;;;;;5086683;28;20043;-44
2023/08/11 04:38:30;;;;;;;5.82;5.25;;;18.30;99.90;;;;;;5073149;28;20023;-43
2023/08/11 04:40:57;;;;;;;8.30;5.57;;;18.30;99.90;;;;;;5086952;28;20059;-43
2023/08/11 04:43:25;;;;;;;6.25;5.28;;;18.30;99.90;;;;;;5074940;28;20099;-43
2023/08/11 04:45:51;;;;;;;6.78;5.40;;;18.30;99.90;;;;;;5085654;28;20027;-43
2023/08/11 04:48:16;;;;;;;5.72;5.22;;;18.30;99.90;;;;;;5076342;28;20031;-43
2023/08/11 04:50:46;;;;;;;5.60;4.97;;;18.30;99.90;;;;;;5082761;28;20040;-42
2023/08/11 04:53:12;;;;;;;5.78;5.18;;;18.30;99.90;;;;;;5079782;28;20024;-43
2023/08/11 04:55:39;;;;;;;5.60;5.10;;;18.30;99.90;;;;;;5085846;28;20605;-43
2023/08/11 04:58:05;;;;;;;5.85;5.35;;;18.30;99.90;;;;;;5081135;28;20422;-43
2023/08/11 05:00:30;;;;;;;5.93;5.30;;;18.30;99.90;;;;;;5077626;28;20121;-43
2023/08/11 05:02:57;;;;;;;7.68;5.93;;;18.30;99.90;;;;;;5084215;28;20055;-43
2023/08/11 05:05:26;;;;;;;8.13;6.75;;;18.30;99.90;;;;;;5074995;28;20047;-43
2023/08/11 05:07:52;;;;;;;7.53;6.47;;;18.30;99.90;;;;;;5085168;28;20089;-43
2023/08/11 05:10:20;;;;;;;8.50;6.45;;;18.30;99.90;;;;;;5074347;28;20094;-43
2023/08/11 05:12:47;;;;;;;6.78;6.07;;;18.30;99.90;;;;;;5083853;28;20023;-43
2023/08/11 05:15:13;;;;;;;6.15;5.55;;;18.30;99.90;;;;;;5074220;28;20058;-43
2023/08/11 05:17:38;;;;;;;6.38;5.25;;;18.30;99.90;;;;;;5086095;28;20035;-44
2023/08/11 05:20:08;;;;;;;6.47;5.57;;;18.30;99.90;;;;;;5070989;28;20032;-43
2023/08/11 05:22:40;;;;;;;7.55;4.90;;;18.40;99.90;;;;;;5086454;28;20620;-43
2023/08/11 05:25:06;;;;;;;5.85;4.90;;;18.40;99.90;;;;;;5072810;28;20024;-43
2023/08/11 05:27:32;;;;;;;6.28;4.97;;;18.40;99.90;;;;;;5085401;28;20020;-43
2023/08/11 05:29:58;;;;;;;8.32;4.97;;;18.40;99.90;;;;;;5074143;28;20029;-44
2023/08/11 05:32:24;;;;;;;6.28;4.80;;;18.40;99.90;;;;;;5078854;28;20532;-42
2023/08/11 05:34:50;;;;;;;5.90;4.85;;;18.40;99.90;;;;;;5073587;28;20505;-43
2023/08/11 05:37:16;;;;;;;5.97;4.80;;;18.50;99.90;;;;;;5067930;28;20484;-43
2023/08/11 05:39:45;;;;;;;5.60;5.10;;;18.50;99.90;;;;;;5069182;28;20028;-43
2023/08/11 05:42:10;;;;;;;7.80;5.22;;;18.50;99.90;;;;;;5068880;28;20028;-42
2023/08/11 05:44:36;;;;;;;4.88;4.47;;;18.50;99.90;;;;;;5068643;28;20021;-43
2023/08/11 05:47:02;;;;;;;4.40;4.00;;;18.60;99.90;;;;;;5072565;28;20036;-44
2023/08/11 05:49:28;;;;;;;4.80;4.40;;;18.60;99.90;;;;;;5064960;28;20044;-43
2023/08/11 05:51:55;;;;;;;5.43;4.38;;;18.60;99.90;;;;;;5075657;28;20020;-43
2023/08/11 05:54:20;;;;;;;5.55;4.55;;;18.60;99.90;;;;;;5072843;28;20475;-43
2023/08/11 05:56:46;;;;;;;4.47;4.07;;;18.60;99.90;;;;;;5072009;28;20063;-43
2023/08/11 05:59:11;;;;;;;5.88;4.63;;;18.60;99.90;;;;;;5082953;28;20711;-43
2023/08/11 06:01:37;;;;;;;4.95;4.22;;;18.70;99.90;;;;;;5071278;28;20051;-43
2023/08/11 06:04:03;;;;;;;4.90;4.40;;;18.70;99.90;;;;;;5083593;28;20593;-43
2023/08/11 06:06:31;;;;;;;4.80;4.20;;;18.70;99.90;;;;;;5071212;28;20064;-43
2023/08/11 06:08:57;;;;;;;4.57;3.92;;;18.70;99.90;;;;;;5082546;28;20028;-43
2023/08/11 06:11:23;;;;;;;5.05;4.43;;;18.70;99.90;;;;;;5071862;28;20021;-43
2023/08/11 06:13:48;;;;;;;4.68;4.03;;;18.80;99.90;;;;;;5083222;28;20039;-43
2023/08/11 06:16:14;;;;;;;5.28;4.68;;;18.80;99.90;;;;;;5073508;28;20054;-43
2023/08/11 06:18:40;;;;;;;4.80;4.28;;;18.90;99.90;;;;;;5080981;28;20035;-42
2023/08/11 06:21:06;;;;;;;7.70;4.95;;;18.80;99.90;;;;;;5081591;28;20028;-42
2023/08/11 06:23:32;;;;;;;5.07;4.30;;;18.90;99.90;;;;;;5069232;28;20033;-43
2023/08/11 06:25:57;;;;;;;4.75;3.83;;;18.90;99.90;;;;;;5067218;28;20035;-42
2023/08/11 06:28:23;;;;;;;4.82;4.13;;;19.00;99.90;;;;;;5072238;28;20047;-43
2023/08/11 06:30:49;;;;;;;4.30;3.90;;;19.00;99.90;;;;;;5064169;28;20029;-42
2023/08/11 06:33:15;;;;;;;4.97;4.10;;;19.00;99.90;;;;;;5074015;28;20044;-42
2023/08/11 06:35:42;;;;;;;5.00;4.03;;;19.10;99.90;;;;;;5064739;28;20399;-43
2023/08/11 06:38:08;;;;;;;4.35;3.95;;;19.10;99.90;;;;;;5073942;28;20056;-44
2023/08/11 06:40:34;;;;;;;3.72;3.38;;;19.10;99.90;;;;;;5063597;28;20021;-42
2023/08/11 06:43:00;;;;;;;4.50;3.58;;;19.10;99.90;;;;;;5075428;28;20078;-42
2023/08/11 06:45:26;;;;;;;4.18;3.50;;;19.20;99.90;;;;;;5064561;28;20114;-43
2023/08/11 06:47:51;;;;;;;4.00;3.60;;;19.20;99.90;;;;;;5076734;28;20745;-42
2023/08/11 06:50:20;;;;;;;5.65;3.90;;;19.20;99.90;;;;;;5069103;28;20127;-43
2023/08/11 06:52:46;;;;;;;4.47;3.88;;;19.30;99.90;;;;;;5071809;28;20747;-43
2023/08/11 06:55:11;;;;;;;4.25;3.60;;;19.30;99.90;;;;;;5066156;28;20021;-42
2023/08/11 06:57:37;;;;;;;4.20;3.80;;;19.40;99.90;;;;;;5072646;28;20592;-43
2023/08/11 07:00:07;;;;;;;3.88;3.47;;;19.40;99.90;;;;;;5067009;28;20028;-43
2023/08/11 07:02:34;;;;;;;3.92;3.53;;;19.40;99.90;;;;;;5070375;28;20046;-42
2023/08/11 07:05:03;;;;;;;5.95;3.90;;;19.50;99.90;;;;;;5068510;28;20078;-43
2023/08/11 07:07:28;;;;;;;4.72;3.75;;;19.50;99.90;;;;;;5068584;28;20769;-43
2023/08/11 07:09:54;;;;;;;5.22;3.67;;;19.50;99.90;;;;;;5071121;28;20029;-42
2023/08/11 07:12:19;;;;;;;4.35;3.95;;;19.60;99.90;;;;;;5065176;28;20024;-42
2023/08/11 07:14:45;;;;;;;4.75;3.60;;;19.60;99.90;;;;;;5073230;28;20395;-42
2023/08/11 07:17:11;;;;;;;7.10;3.88;;;19.70;99.90;;;;;;5064651;28;20023;-43
2023/08/11 07:19:37;;;;;;;4.65;3.58;;;19.70;99.90;;;;;;5077116;28;20204;-42
2023/08/11 07:22:06;;;;;;;4.20;3.38;;;19.70;99.90;;;;;;5068719;28;20024;-42
2023/08/11 07:24:31;;;;;;;3.60;3.17;;;19.80;99.90;;;;;;5079151;28;20027;-43
2023/08/11 07:26:57;;;;;;;4.25;3.20;;;19.80;99.90;;;;;;5066411;28;20036;-43
2023/08/11 07:29:25;;;;;;;5.63;3.08;;;19.90;99.90;;;;;;5079905;28;20033;-43
2023/08/11 07:31:51;;;;;;;2.97;2.70;;;19.90;99.90;;;;;;5067618;28;20082;-42
2023/08/11 07:34:17;;;;;;;2.70;2.40;;;19.90;99.90;;;;;;5078681;28;20063;-42
2023/08/11 07:36:43;;;;;;;2.50;2.13;;;20.00;99.90;;;;;;5067487;28;20551;-42
2023/08/11 07:39:09;;;;;;;2.70;2.45;;;20.10;99.90;;;;;;5077294;28;20031;-43
2023/08/11 07:41:38;;;;;;;3.13;2.83;;;20.10;99.90;;;;;;5068417;28;20024;-43
2023/08/11 07:44:04;;;;;;;3.25;2.95;;;20.20;99.90;;;;;;5075632;28;20107;-45
2023/08/11 07:46:30;;;;;;;2.70;2.33;;;20.20;99.90;;;;;;5071451;28;20135;-43
2023/08/11 07:48:56;;;;;;;3.28;2.40;;;20.30;99.90;;;;;;5072101;28;20528;-42
2023/08/11 07:51:21;;;;;;;4.22;2.85;;;20.30;99.90;;;;;;5071780;28;20093;-42
2023/08/11 07:53:48;;;;;;;3.58;2.67;;;20.40;99.90;;;;;;5070870;28;20074;-43
2023/08/11 07:56:14;;;;;;;3.10;2.80;;;20.40;99.90;;;;;;5071309;28;20037;-43
2023/08/11 07:58:40;;;;;;;3.95;3.05;;;20.50;99.90;;;;;;5066997;28;20024;-43
2023/08/11 08:01:08;;;;;;;3.97;2.78;;;20.50;99.90;;;;;;5076112;28;20060;-43
2023/08/11 08:03:34;;;;;;;3.67;3.22;;;20.60;99.90;;;;;;5065251;28;20055;-42
2023/08/11 08:06:00;;;;;;;5.00;3.03;;;20.60;99.90;;;;;;5075765;28;20036;-43
2023/08/11 08:08:26;;;;;;;5.00;3.28;;;20.70;99.90;;;;;;5067004;28;20025;-43
2023/08/11 08:10:52;;;;;;;3.45;2.95;;;20.70;99.90;;;;;;5079609;28;20696;-43
2023/08/11 08:13:17;;;;;;;5.72;2.90;;;20.80;99.90;;;;;;5066904;28;20039;-42
2023/08/11 08:15:43;;;;;;;3.22;2.90;;;20.80;99.90;;;;;;5078664;28;20070;-42
2023/08/11 08:18:09;;;;;;;3.53;3.22;;;20.90;99.90;;;;;;5066175;28;20499;-43
2023/08/11 08:20:34;;;;;;;3.63;2.83;;;20.90;99.90;;;;;;5077256;28;20038;-43
2023/08/11 08:23:00;;;;;;;2.42;2.22;;;21.00;99.90;;;;;;5067369;28;20025;-42
2023/08/11 08:25:25;;;;;;;3.80;2.60;;;21.10;99.90;;;;;;5074628;28;20468;-43
2023/08/11 08:27:51;;;;;;;3.38;3.08;;;21.10;99.90;;;;;;5070732;28;20033;-42
2023/08/11 08:30:18;;;;;;;4.60;2.90;;;21.20;99.90;;;;;;5070163;28;20016;-42
2023/08/11 08:32:46;;;;;;;3.47;3.17;;;21.20;99.90;;;;;;5073335;28;20106;-43
2023/08/11 08:35:12;;;;;;;4.10;2.95;;;21.30;99.90;;;;;;5069701;28;20025;-43
2023/08/11 08:37:38;;;;;;;4.72;3.70;;;21.40;99.90;;;;;;5074965;28;20762;-43
2023/08/11 08:40:04;;;;;;;3.40;2.53;;;21.50;99.90;;;;;;5065463;28;20024;-43
2023/08/11 08:42:31;;;;;;;3.78;2.85;;;21.60;99.90;;;;;;5077676;28;20441;-43
2023/08/11 08:44:57;;;;;;;4.18;2.78;;;21.60;99.90;;;;;;5066836;28;20744;-44
2023/08/11 08:47:26;;;;;;;3.72;3.10;;;21.70;99.90;;;;;;5077931;28;20383;-42
2023/08/11 08:49:53;;;;;;;3.53;2.78;;;21.70;99.90;;;;;;5066773;28;20702;-43
2023/08/11 08:52:19;;;;;;;3.40;2.63;;;21.90;99.90;;;;;;5077495;28;20028;-42
2023/08/11 08:54:45;;;;;;;3.17;2.50;;;21.90;99.90;;;;;;5078464;28;20024;-43
2023/08/11 08:57:11;;;;;;;3.40;2.95;;;22.00;99.90;;;;;;5073228;28;20036;-43
2023/08/11 08:59:37;;;;;;;3.65;2.65;;;22.10;99.90;;;;;;5085798;28;20080;-43
2023/08/11 09:02:04;;;;;;;4.43;3.15;;;22.20;99.90;;;;;;5073549;28;20471;-43
2023/08/11 09:04:30;;;;;;;4.50;3.00;;;22.20;99.90;;;;;;5084867;28;20028;-43
2023/08/11 09:06:56;;;;;;;3.42;2.97;;;22.30;99.90;;;;;;5076568;28;20028;-43
2023/08/11 09:09:23;;;;;;;3.10;2.80;;;22.40;99.90;;;;;;5083012;28;20024;-43
2023/08/11 09:11:49;;;;;;;4.68;3.22;;;22.40;99.90;;;;;;5078225;28;20471;-43
2023/08/11 09:14:16;;;;;;;4.72;2.92;;;22.50;99.90;;;;;;5080001;28;20024;-43
2023/08/11 09:16:42;;;;;;;3.10;2.45;;;22.50;99.90;;;;;;5080719;28;20040;-43
2023/08/11 09:19:11;;;;;;;3.33;2.78;;;22.60;99.90;;;;;;5076708;28;20063;-43
2023/08/11 09:21:37;;;;;;;3.58;2.63;;;22.60;99.90;;;;;;5082904;28;20016;-43
2023/08/11 09:24:03;;;;;;;3.42;2.65;;;22.70;99.90;;;;;;5075101;28;20395;-43
2023/08/11 09:26:29;;;;;;;2.92;2.63;;;22.80;99.90;;;;;;5084120;28;20042;-42
2023/08/11 09:28:55;;;;;;;4.30;2.80;;;22.90;99.90;;;;;;5074453;28;20687;-43
2023/08/11 09:31:24;;;;;;;3.08;2.58;;;23.00;99.90;;;;;;5083916;28;20523;-43
2023/08/11 09:33:52;;;;;;;2.78;2.35;;;23.00;99.90;;;;;;5076712;28;20040;-43
2023/08/11 09:36:18;;;;;;;2.30;2.10;;;23.10;99.90;;;;;;5065396;28;20032;-43
2023/08/11 09:38:48;;;;;;;3.72;2.60;;;23.10;99.90;;;;;;5078395;28;20100;-42
2023/08/11 09:41:15;;;;;;;5.47;2.53;;;23.20;99.90;;;;;;5064357;28;20051;-43
2023/08/11 09:43:48;;;;;;;2.30;2.10;;;23.30;99.90;;;;;;5077711;28;20189;-43
2023/08/11 09:46:14;;;;;;;2.90;2.60;;;23.40;99.90;;;;;;5064793;28;20037;-43
2023/08/11 09:48:39;;;;;;;3.92;2.20;;;23.50;99.90;;;;;;5077522;28;20130;-43
2023/08/11 09:51:15;;;;;;;2.97;2.35;;;23.50;99.90;;;;;;5064397;28;20061;-43
2023/08/11 09:53:42;;;;;;;3.60;1.95;;;23.70;99.90;;;;;;5072648;28;20056;-43
2023/08/11 09:56:10;;;;;;;2.67;2.47;;;23.90;99.90;;;;;;5064405;28;20799;-43
2023/08/11 09:58:39;;;;;;;2.45;2.10;;;24.20;99.90;;;;;;5073680;28;20048;-43
2023/08/11 10:01:11;;;;;;;4.00;2.45;;;24.30;99.90;;;;;;5066664;28;20112;-44
2023/08/11 10:03:42;;;;;;;2.72;2.28;;;24.40;99.90;;;;;;5071779;28;20028;-43
2023/08/11 10:06:13;;;;;;;4.18;2.30;;;24.50;99.90;;;;;;5080485;28;20494;-43
2023/08/11 10:08:42;;;;;;;2.65;2.33;;;24.60;99.90;;;;;;5076998;28;20036;-44
2023/08/11 10:11:08;;;;;;;2.97;2.47;;;24.70;99.90;;;;;;5078865;28;20024;-44
2023/08/11 10:13:35;;;;;;;2.55;2.30;;;24.80;99.90;;;;;;5079622;28;20028;-44
2023/08/11 10:16:04;;;;;;;2.72;2.20;;;24.80;99.90;;;;;;5075114;28;20036;-43
2023/08/11 10:18:31;;;;;;;2.55;2.22;;;24.90;99.90;;;;;;5080983;28;20523;-44
2023/08/11 10:20:58;;;;;;;2.92;2.38;;;25.00;99.90;;;;;;5074722;28;20020;-44
2023/08/11 10:23:24;;;;;;;2.30;2.10;;;25.00;99.90;;;;;;5081810;28;20021;-43
2023/08/11 10:25:50;;;;;;;2.72;1.90;;;25.00;99.90;;;;;;5073624;28;20541;-43
2023/08/11 10:28:17;;;;;;;2.53;2.17;;;24.90;99.90;;;;;;5082572;28;20028;-44
2023/08/11 10:30:43;;;;;;;2.40;1.90;;;24.90;99.90;;;;;;5074594;28;20491;-43
2023/08/11 10:33:09;;;;;;;2.50;2.28;;;24.90;99.90;;;;;;5064291;28;20021;-44
2023/08/11 10:35:47;;;;;;;3.00;2.38;;;25.00;99.90;;;;;;5076409;28;20147;-43
2023/08/11 10:38:57;;;;;;;2.30;2.10;;;25.10;99.90;;;;;;5063867;28;20056;-43
2023/08/11 10:41:23;;;;;;;3.00;2.70;;;25.10;99.90;;;;;;5074665;28;20809;-43
2023/08/11 10:43:49;;;;;;;3.85;2.85;;;25.10;99.90;;;;;;5065128;28;20027;-43
2023/08/11 10:46:30;;;;;;;3.65;2.55;;;25.10;99.90;;;;;;5074779;28;20738;-42
2023/08/11 10:49:18;;;;;;;3.30;2.80;;;25.10;99.90;;;;;;5065070;28;20024;-44
2023/08/11 10:51:43;;;;;;;3.28;2.97;;;25.20;99.90;;;;;;5075121;28;20464;-43
2023/08/11 10:54:17;;;;;;;3.03;2.47;;;25.40;99.90;;;;;;5067240;28;20580;-43
2023/08/11 10:56:45;;;;;;;2.70;2.20;;;25.50;99.90;;;;;;5072600;28;20776;-43
2023/08/11 10:59:23;;;;;;;2.92;2.60;;;25.50;99.90;;;;;;5083198;28;20020;-43
2023/08/11 11:01:51;;;;;;;1.90;1.80;;;25.60;99.90;;;;;;5075603;28;20020;-43
2023/08/11 11:04:22;;;;;;;2.40;2.20;;;25.70;99.90;;;;;;5061489;28;20035;-43
2023/08/11 11:06:51;;;;;;;2.72;2.30;;;25.80;99.90;;;;;;5071175;28;20158;-43
2023/08/11 11:09:16;;;;;;;2.47;2.28;;;25.80;99.90;;;;;;5084014;28;20486;-43
2023/08/11 11:11:44;;;;;;;2.35;2.10;;;25.90;99.90;;;;;;5077171;28;20024;-43
2023/08/11 11:14:12;;;;;;;2.22;2.03;;;25.90;99.90;;;;;;5063925;28;20032;-43
2023/08/11 11:16:38;;;;;;;3.67;2.35;;;25.90;99.90;;;;;;5073559;28;20032;-43
2023/08/11 11:19:06;;;;;;;2.50;2.00;;;26.00;99.90;;;;;;5063118;28;20036;-44
2023/08/11 11:21:32;;;;;;;2.45;2.25;;;26.00;99.90;;;;;;5077341;28;20020;-43
2023/08/11 11:23:58;;;;;;;3.95;1.75;;;26.00;99.90;;;;;;5065502;28;20043;-43
2023/08/11 11:26:25;;;;;;;2.80;1.60;;;26.10;99.90;;;;;;5071281;28;20039;-43
2023/08/11 11:28:55;;;;;;;2.17;1.92;;;26.00;99.90;;;;;;5068285;28;20645;-43
2023/08/11 11:31:22;;;;;;;2.10;1.90;;;26.00;99.90;;;;;;5069082;28;20085;-43
2023/08/11 11:33:48;;;;;;;3.00;2.05;;;26.00;99.90;;;;;;5070264;28;20033;-43
2023/08/11 11:36:16;;;;;;;3.15;2.13;;;26.00;99.90;;;;;;5067110;28;20038;-43
2023/08/11 11:38:42;;;;;;;2.25;2.05;;;26.00;99.90;;;;;;5072540;28;20041;-43
2023/08/11 11:41:13;;;;;;;2.03;1.85;;;26.00;99.90;;;;;;5064175;28;20369;-43
2023/08/11 11:43:39;;;;;;;2.20;1.85;;;26.10;99.90;;;;;;5073744;28;20364;-44
2023/08/11 11:46:14;;;;;;;2.25;1.95;;;26.20;99.90;;;;;;5064530;28;20016;-43
2023/08/11 11:48:53;;;;;;;1.92;1.80;;;26.30;99.90;;;;;;5075099;28;20044;-43
2023/08/11 11:51:30;;;;;;;3.13;1.92;;;26.20;99.90;;;;;;5062922;28;20565;-43
2023/08/11 11:54:01;;;;;;;1.88;1.73;;;26.20;99.90;;;;;;5067346;28;20038;-43
2023/08/11 11:56:29;;;;;;;2.53;1.80;;;26.30;99.90;;;;;;5062999;28;20391;-44
2023/08/11 11:58:56;;;;;;;3.67;1.73;;;26.30;99.90;;;;;;5073207;28;20024;-44
2023/08/11 12:01:25;;;;;;;2.40;2.05;;;26.30;99.90;;;;;;5062031;28;20081;-43
2023/08/11 12:03:54;;;;;;;1.63;1.52;;;26.30;99.90;;;;;;5073129;28;20085;-43
2023/08/11 12:06:20;;;;;;;1.92;1.83;;;26.30;99.90;;;;;;5064618;28;20039;-43
2023/08/11 12:08:48;;;;;;;2.00;1.80;;;26.40;99.90;;;;;;5073872;28;20525;-43
2023/08/11 12:11:19;;;;;;;3.17;1.85;;;26.40;99.90;;;;;;5086510;28;20027;-42
2023/08/11 12:13:45;;;;;;;2.55;1.85;;;26.40;99.90;;;;;;5073926;28;20027;-42
2023/08/11 12:16:12;;;;;;;2.38;1.80;;;26.60;99.90;;;;;;5086163;28;20040;-45
2023/08/11 12:18:39;;;;;;;1.90;1.80;;;26.70;99.90;;;;;;5074294;28;20078;-43
2023/08/11 12:21:06;;;;;;;2.17;1.90;;;26.70;99.90;;;;;;5085673;28;20024;-43
2023/08/11 12:23:31;;;;;;;2.22;1.70;;;26.80;99.90;;;;;;5076920;28;20021;-43
2023/08/11 12:25:58;;;;;;;1.80;1.70;;;26.90;99.90;;;;;;5083447;28;20026;-43
2023/08/11 12:28:23;;;;;;;1.98;1.52;;;26.90;99.90;;;;;;5078563;28;20027;-42
2023/08/11 12:30:49;;;;;;;1.95;1.50;;;27.00;99.90;;;;;;5081068;28;20036;-42
2023/08/11 12:33:15;;;;;;;2.50;1.70;;;27.00;99.90;;;;;;5081544;28;20044;-43
2023/08/11 12:35:42;;;;;;;2.20;1.95;;;27.00;99.90;;;;;;5078217;28;20036;-43
2023/08/11 12:38:12;;;;;;;2.25;1.63;;;27.10;99.90;;;;;;5084182;28;20069;-43
2023/08/11 12:40:41;;;;;;;1.95;1.77;;;27.20;99.90;;;;;;5076399;28;20027;-43
2023/08/11 12:43:08;;;;;;;1.70;1.60;;;27.20;99.90;;;;;;5083933;28;20028;-43
2023/08/11 12:45:37;;;;;;;2.90;2.10;;;27.30;99.90;;;;;;5075108;28;20016;-43
2023/08/11 12:48:02;;;;;;;2.17;1.83;;;27.30;99.90;;;;;;5084486;28;20604;-43